Time;durP1;ratioP1;P1;durP2;ratioP2;P2;SDS_P1;SDS_P2;PMS_P1;PMS_P2;Temp;Humidity;BMP_temperature;BMP_pressure;BME280_temperature;BME280_humidity;BME280_pressure;Samples;Min_cycle;Max_cycle;Signal;HPM_P1;HPM_P2
2023/09/23 00:00:07;;;;;;;13.05;5.63;;;;;;;22.23;78.04;99006.34;5049395;28;20207;-60
2023/09/23 00:02:35;;;;;;;8.95;4.78;;;;;;;22.23;78.01;99007.13;5049532;28;20200;-60
2023/09/23 00:05:12;;;;;;;11.82;4.13;;;;;;;22.20;78.45;99007.50;5049212;28;20210;-60
2023/09/23 00:07:40;;;;;;;12.53;4.23;;;;;;;22.11;78.85;99008.59;5049545;28;20238;-60
2023/09/23 00:10:08;;;;;;;11.23;4.73;;;;;;;22.00;79.27;99011.72;5047856;28;20647;-60
2023/09/23 00:12:36;;;;;;;7.75;4.50;;;;;;;21.99;78.90;99010.06;5047665;28;20216;-60
2023/09/23 00:15:06;;;;;;;8.85;4.47;;;;;;;22.00;79.05;99014.31;5048201;28;20208;-60
2023/09/23 00:17:33;;;;;;;10.48;4.55;;;;;;;22.09;78.26;99016.59;5048953;28;20279;-60
2023/09/23 00:20:02;;;;;;;10.60;4.35;;;;;;;22.02;78.96;99014.91;5048937;28;20211;-61
2023/09/23 00:22:29;;;;;;;11.65;4.55;;;;;;;21.97;78.96;99017.28;5049077;28;20205;-60
2023/09/23 00:24:58;;;;;;;11.93;4.13;;;;;;;22.01;78.55;99002.91;5048858;28;20296;-60
2023/09/23 00:27:26;;;;;;;10.68;4.25;;;;;;;22.00;78.90;99017.72;5048353;28;20237;-60
2023/09/23 00:29:53;;;;;;;11.37;4.43;;;;;;;21.94;79.38;99008.06;5048679;28;20210;-60
2023/09/23 00:32:21;;;;;;;11.15;4.45;;;;;;;21.97;79.32;99014.69;5048415;28;20199;-60
2023/09/23 00:34:48;;;;;;;7.27;4.00;;;;;;;21.94;79.76;99018.47;5048672;28;20203;-60
2023/09/23 00:37:15;;;;;;;10.65;4.22;;;;;;;21.93;79.77;99015.06;5048462;28;20203;-60
2023/09/23 00:39:42;;;;;;;10.37;3.93;;;;;;;22.00;78.88;99011.72;5048294;28;20587;-60
2023/09/23 00:42:12;;;;;;;10.60;4.18;;;;;;;21.91;79.05;99006.63;5048565;28;20196;-60
2023/09/23 00:44:40;;;;;;;10.10;4.05;;;;;;;21.85;79.40;99012.56;5048014;28;20735;-60
2023/09/23 00:47:08;;;;;;;6.77;3.83;;;;;;;21.82;79.17;99010.34;5048119;28;20263;-60
2023/09/23 00:49:37;;;;;;;13.35;4.15;;;;;;;21.81;78.78;99013.13;5048626;28;20260;-60
2023/09/23 00:52:06;;;;;;;8.63;4.03;;;;;;;21.80;78.76;99011.50;5048178;28;20207;-60
2023/09/23 00:54:40;;;;;;;8.65;3.80;;;;;;;21.76;79.84;99005.88;5048275;28;20463;-60
2023/09/23 00:57:07;;;;;;;7.95;3.60;;;;;;;21.80;80.32;99012.31;5048490;28;20210;-60
2023/09/23 00:59:35;;;;;;;10.20;3.70;;;;;;;21.73;80.73;99014.06;5048137;28;20205;-60
2023/09/23 01:02:02;;;;;;;10.57;3.92;;;;;;;21.77;81.51;99017.88;5048024;28;20277;-60
2023/09/23 01:04:29;;;;;;;7.80;3.63;;;;;;;21.76;82.14;99011.09;5048123;28;20683;-60
2023/09/23 01:06:59;;;;;;;10.47;3.70;;;;;;;21.72;83.42;99017.63;5046385;28;20599;-60
2023/09/23 01:09:27;;;;;;;6.20;3.55;;;;;;;21.73;84.00;99013.22;5046843;28;20542;-60
2023/09/23 01:11:55;;;;;;;7.45;3.22;;;;;;;21.54;83.25;99022.44;5046729;28;20214;-60
2023/09/23 01:14:22;;;;;;;7.37;3.37;;;;;;;21.43;83.43;99016.72;5047569;28;20225;-60
2023/09/23 01:16:49;;;;;;;9.13;3.33;;;;;;;21.55;82.78;99016.25;5047639;28;20322;-60
2023/09/23 01:19:18;;;;;;;7.63;3.57;;;;;;;21.55;81.93;99013.63;5047803;28;20742;-60
2023/09/23 01:21:48;;;;;;;8.43;3.60;;;;;;;21.46;83.62;99013.75;5047970;28;20639;-60
2023/09/23 01:24:18;;;;;;;12.43;4.23;;;;;;;21.37;85.12;99016.63;5047973;28;20742;-60
2023/09/23 01:26:45;;;;;;;6.80;3.37;;;;;;;21.25;85.97;99018.88;5047896;28;20260;-60
2023/09/23 01:29:12;;;;;;;6.50;3.47;;;;;;;21.35;85.50;99014.22;5047734;28;20636;-60
2023/09/23 01:31:39;;;;;;;8.70;3.33;;;;;;;21.33;85.29;99016.16;5048149;28;20206;-60
2023/09/23 01:34:07;;;;;;;9.60;3.13;;;;;;;21.25;86.50;99013.66;5047493;28;20223;-60
2023/09/23 01:36:37;;;;;;;8.73;3.50;;;;;;;21.18;86.41;99008.41;5047526;28;20298;-60
2023/09/23 01:39:07;;;;;;;5.33;3.30;;;;;;;21.24;86.45;99012.06;5047786;28;20210;-60
2023/09/23 01:41:36;;;;;;;6.77;3.40;;;;;;;21.25;86.42;99005.88;5047567;28;20281;-60
2023/09/23 01:44:04;;;;;;;8.50;3.33;;;;;;;21.24;87.01;99002.47;5047552;28;20202;-60
2023/09/23 01:46:33;;;;;;;6.57;3.50;;;;;;;21.25;87.60;99011.06;5047766;28;20238;-60
2023/09/23 01:49:03;;;;;;;5.33;2.73;;;;;;;21.19;88.62;99011.78;5047473;28;20206;-60
2023/09/23 01:51:29;;;;;;;8.17;3.57;;;;;;;21.18;88.39;99012.78;5047445;28;20217;-59
2023/09/23 01:53:57;;;;;;;7.63;3.40;;;;;;;21.17;88.75;99011.97;5047604;28;20213;-60
2023/09/23 01:56:24;;;;;;;9.23;3.60;;;;;;;21.10;89.31;99005.88;5047586;28;20206;-60
2023/09/23 01:58:52;;;;;;;7.90;3.10;;;;;;;21.06;88.90;99014.22;5047534;28;20200;-61
2023/09/23 02:01:19;;;;;;;9.93;3.40;;;;;;;21.01;88.59;99009.56;5047458;28;20192;-60
2023/09/23 02:03:46;;;;;;;6.73;2.80;;;;;;;21.04;88.69;99011.81;5047332;28;20200;-60
2023/09/23 02:06:14;;;;;;;10.00;3.43;;;;;;;20.99;89.36;99004.53;5047228;28;20241;-60
2023/09/23 02:08:41;;;;;;;11.07;3.87;;;;;;;20.95;89.12;99011.09;5047295;28;20221;-60
2023/09/23 02:11:08;;;;;;;8.00;3.67;;;;;;;20.94;88.75;99009.50;5047201;28;20204;-60
2023/09/23 02:13:36;;;;;;;7.33;3.83;;;;;;;20.97;88.36;99003.09;5047399;28;20204;-60
2023/09/23 02:16:05;;;;;;;8.63;3.50;;;;;;;20.96;88.83;99002.31;5047386;28;20234;-60
2023/09/23 02:18:35;;;;;;;8.27;3.50;;;;;;;20.92;89.08;99008.06;5047394;28;20666;-60
2023/09/23 02:21:01;;;;;;;8.27;3.70;;;;;;;20.83;89.53;99012.53;5047510;28;20194;-60
2023/09/23 02:23:28;;;;;;;11.90;4.17;;;;;;;20.82;89.36;99010.91;5047297;28;20198;-61
2023/09/23 02:25:55;;;;;;;8.13;4.00;;;;;;;20.83;90.00;99009.94;5047231;28;20491;-61
2023/09/23 02:28:22;;;;;;;9.90;3.70;;;;;;;20.74;89.39;99019.59;5047105;28;20232;-60
2023/09/23 02:30:49;;;;;;;13.17;4.20;;;;;;;20.65;89.54;99022.44;5047108;28;20203;-60
2023/09/23 02:33:17;;;;;;;7.73;3.60;;;;;;;20.67;89.26;99028.28;5047022;28;20221;-59
2023/09/23 02:35:43;;;;;;;7.67;3.90;;;;;;;20.68;89.70;99027.28;5046992;28;20206;-61
2023/09/23 02:38:11;;;;;;;8.13;4.27;;;;;;;20.70;90.21;99033.13;5046881;28;20204;-60
2023/09/23 02:40:41;;;;;;;8.07;3.73;;;;;;;20.67;90.29;99036.88;5047275;28;20213;-60
2023/09/23 02:43:08;;;;;;;8.40;3.77;;;;;;;20.58;90.05;99033.53;5047180;28;20276;-60
2023/09/23 02:45:34;;;;;;;8.10;4.27;;;;;;;20.57;89.52;99028.53;5047073;28;20220;-60
2023/09/23 02:48:01;;;;;;;13.13;3.73;;;;;;;20.54;89.81;99021.91;5047167;28;20249;-60
2023/09/23 02:50:30;;;;;;;7.17;3.90;;;;;;;20.44;89.99;99021.28;5049743;28;20196;-60
2023/09/23 02:52:57;;;;;;;10.07;3.90;;;;;;;20.32;91.18;99026.09;5050562;28;20238;-60
2023/09/23 02:55:24;;;;;;;11.93;4.33;;;;;;;20.36;91.71;99023.97;5050537;28;20290;-60
2023/09/23 02:57:55;;;;;;;7.77;4.20;;;;;;;20.34;91.91;99020.75;5050765;28;20210;-60
2023/09/23 03:00:23;;;;;;;6.07;3.73;;;;;;;20.34;92.14;99021.56;5050348;28;20208;-59
2023/09/23 03:02:54;;;;;;;14.33;4.37;;;;;;;20.36;92.16;99026.56;5050275;28;20610;-60
2023/09/23 03:05:26;;;;;;;20.90;4.33;;;;;;;20.34;92.56;99025.94;5050508;28;20470;-60
2023/09/23 03:07:57;;;;;;;9.23;4.00;;;;;;;20.32;92.32;99028.69;5050221;28;20234;-60
2023/09/23 03:10:31;;;;;;;9.07;4.03;;;;;;;20.30;92.88;99027.25;5050265;28;20632;-60
2023/09/23 03:13:06;;;;;;;8.03;3.80;;;;;;;20.27;93.21;99025.00;5049518;28;20195;-60
2023/09/23 03:15:37;;;;;;;8.50;4.10;;;;;;;20.15;92.91;99027.22;5050047;28;20198;-60
2023/09/23 03:18:05;;;;;;;13.53;3.60;;;;;;;20.08;92.30;99037.50;5050176;28;20229;-59
2023/09/23 03:20:34;;;;;;;8.63;3.57;;;;;;;20.12;92.59;99036.16;5050216;28;20196;-60
2023/09/23 03:23:03;;;;;;;10.53;3.70;;;;;;;20.19;93.15;99032.84;5050007;28;20228;-60
2023/09/23 03:25:30;;;;;;;5.90;3.73;;;;;;;20.19;94.11;99027.66;5050327;28;20308;-60
2023/09/23 03:27:57;;;;;;;9.17;2.97;;;;;;;20.15;94.31;99036.78;5050115;28;20257;-60
2023/09/23 03:30:24;;;;;;;15.50;4.17;;;;;;;20.10;94.45;99042.50;5050097;28;20466;-60
2023/09/23 03:32:51;;;;;;;8.90;3.90;;;;;;;20.09;94.48;99039.09;5049876;28;20201;-60
2023/09/23 03:35:20;;;;;;;6.47;3.50;;;;;;;20.10;94.37;99035.53;5050013;28;20197;-60
2023/09/23 03:37:49;;;;;;;5.67;3.50;;;;;;;20.06;93.70;99039.44;5049675;28;20663;-60
2023/09/23 03:40:20;;;;;;;7.13;3.83;;;;;;;20.03;94.10;99039.00;5049940;28;20297;-59
2023/09/23 03:42:48;;;;;;;7.23;4.03;;;;;;;19.98;95.13;99042.09;5049732;28;20245;-60
2023/09/23 03:45:17;;;;;;;6.67;3.77;;;;;;;19.95;95.52;99044.22;5049761;28;20247;-59
2023/09/23 03:47:44;;;;;;;7.43;3.77;;;;;;;19.96;95.90;99038.88;5049624;28;20635;-60
2023/09/23 03:50:12;;;;;;;11.73;3.83;;;;;;;19.94;96.17;99040.81;5049185;28;20215;-60
2023/09/23 03:52:40;;;;;;;7.13;3.50;;;;;;;19.85;96.08;99041.84;5049331;28;20608;-60
2023/09/23 03:55:08;;;;;;;8.93;4.10;;;;;;;19.81;95.59;99040.56;5049614;28;20644;-60
2023/09/23 03:57:37;;;;;;;6.87;3.40;;;;;;;19.82;95.35;99048.19;5049580;28;20242;-59
2023/09/23 04:00:07;;;;;;;10.77;3.80;;;;;;;19.83;95.23;99046.41;5048987;28;20198;-60
2023/09/23 04:02:37;;;;;;;9.07;3.83;;;;;;;19.78;95.92;99051.28;5049008;28;20419;-59
2023/09/23 04:05:05;;;;;;;11.30;4.00;;;;;;;19.73;95.53;99058.81;5048801;28;20210;-60
2023/09/23 04:07:32;;;;;;;8.67;4.07;;;;;;;19.68;96.13;99060.09;5048975;28;20238;-60
2023/09/23 04:09:59;;;;;;;14.43;4.07;;;;;;;19.77;96.87;99055.69;5049616;28;20229;-59
2023/09/23 04:12:26;;;;;;;11.70;4.00;;;;;;;19.71;98.04;99060.75;5049086;28;20683;-60
2023/09/23 04:14:54;;;;;;;14.83;4.77;;;;;;;19.77;98.29;99054.88;5048992;28;20220;-60
2023/09/23 04:17:24;;;;;;;8.90;3.80;;;;;;;19.82;97.87;99058.56;5048932;28;20206;-60
2023/09/23 04:19:50;;;;;;;9.63;4.03;;;;;;;19.78;98.83;99056.47;5048969;28;20238;-60
2023/09/23 04:22:18;;;;;;;11.20;4.00;;;;;;;19.67;98.43;99060.28;5048873;28;20216;-60
2023/09/23 04:24:45;;;;;;;12.73;3.83;;;;;;;19.67;97.87;99068.06;5048724;28;20245;-60
2023/09/23 04:27:11;;;;;;;10.83;4.00;;;;;;;19.82;97.77;99057.78;5048800;28;20234;-60
2023/09/23 04:29:38;;;;;;;10.33;4.13;;;;;;;19.89;97.73;99066.47;5060341;28;20202;-59
2023/09/23 04:32:07;;;;;;;10.63;4.00;;;;;;;19.97;97.87;99068.22;5068455;28;20205;-60
2023/09/23 04:34:35;;;;;;;8.47;3.70;;;;;;;19.93;98.89;99075.56;5068663;28;20711;-60
2023/09/23 04:37:04;;;;;;;8.07;4.80;;;;;;;19.95;99.23;99078.75;5068683;28;20210;-60
2023/09/23 04:39:31;;;;;;;10.07;4.07;;;;;;;20.02;99.29;99074.53;5049317;28;20201;-60
2023/09/23 04:42:00;;;;;;;9.97;4.27;;;;;;;20.07;99.88;99077.41;5049048;28;20196;-60
2023/09/23 04:44:27;;;;;;;10.93;3.67;;;;;;;20.07;98.87;99082.59;5048957;28;20232;-60
2023/09/23 04:46:53;;;;;;;7.23;3.70;;;;;;;20.00;99.14;99086.84;5048562;28;20229;-60
2023/09/23 04:49:22;;;;;;;8.70;4.20;;;;;;;20.07;98.84;99093.00;5048419;28;20203;-60
2023/09/23 04:51:48;;;;;;;9.07;4.00;;;;;;;20.17;98.82;99092.75;5048503;28;20210;-60
2023/09/23 04:54:15;;;;;;;10.70;3.70;;;;;;;20.28;97.71;99099.34;5048619;28;20226;-60
2023/09/23 04:56:42;;;;;;;7.50;3.20;;;;;;;20.34;96.66;99093.47;5048854;28;20207;-60
2023/09/23 04:59:09;;;;;;;5.37;3.30;;;;;;;20.42;97.37;99095.16;5048308;28;20203;-60
2023/09/23 05:01:36;;;;;;;5.40;3.60;;;;;;;20.50;96.63;99093.31;5048404;28;20710;-60
2023/09/23 05:04:08;;;;;;;7.77;3.60;;;;;;;20.61;98.89;99092.13;5048313;28;20197;-60
2023/09/23 05:06:36;;;;;;;10.97;3.53;;;;;;;20.75;100.00;99095.75;5048147;28;20194;-59
2023/09/23 05:09:04;;;;;;;7.37;3.57;;;;;;;20.84;100.00;99094.69;5048506;28;20230;-60
2023/09/23 05:11:31;;;;;;;9.17;3.63;;;;;;;20.94;100.00;99099.63;5048061;28;20207;-60
2023/09/23 05:13:58;;;;;;;13.53;3.83;;;;;;;21.15;100.00;99101.56;5048362;28;20206;-60
2023/09/23 05:16:24;;;;;;;9.03;4.00;;;;;;;21.21;100.00;99103.44;5048348;28;20202;-60
2023/09/23 05:18:51;;;;;;;11.13;3.50;;;;;;;21.30;100.00;99099.75;5062646;28;20213;-60
2023/09/23 05:21:18;;;;;;;6.83;3.20;;;;;;;21.39;100.00;99114.31;5067807;28;20220;-60
2023/09/23 05:23:49;;;;;;;11.17;3.47;;;;;;;21.53;100.00;99111.91;5068029;28;20209;-61
2023/09/23 05:26:16;;;;;;;9.53;3.27;;;;;;;21.75;100.00;99113.56;5065411;28;20674;-60
2023/09/23 05:28:43;;;;;;;5.83;3.23;;;;;;;21.96;100.00;99111.97;5047665;28;20403;-60
2023/09/23 05:31:14;;;;;;;9.23;3.38;;;;;;;22.06;100.00;99115.09;5047978;28;20249;-60
2023/09/23 05:33:41;;;;;;;12.30;3.80;;;;;;;22.21;100.00;99125.50;5047865;28;20257;-60
2023/09/23 05:36:07;;;;;;;8.98;3.58;;;;;;;22.31;100.00;99132.03;5047209;28;20690;-60
2023/09/23 05:38:36;;;;;;;9.77;3.58;;;;;;;22.44;100.00;99130.53;5047693;28;20699;-60
2023/09/23 05:41:04;;;;;;;5.90;3.13;;;;;;;22.49;96.75;99125.59;5048002;28;20211;-60
2023/09/23 05:43:31;;;;;;;13.68;3.17;;;;;;;22.56;94.99;99123.84;5048045;28;20206;-60
2023/09/23 05:45:58;;;;;;;12.35;3.55;;;;;;;22.76;95.64;99126.59;5047981;28;20207;-60
2023/09/23 05:48:25;;;;;;;7.07;3.25;;;;;;;22.99;93.95;99129.81;5047708;28;20230;-60
2023/09/23 05:50:52;;;;;;;7.93;2.97;;;;;;;23.18;91.78;99128.31;5048111;28;20202;-60
2023/09/23 05:53:19;;;;;;;9.13;3.22;;;;;;;23.45;89.08;99141.56;5047761;28;20195;-60
2023/09/23 05:55:47;;;;;;;8.48;3.25;;;;;;;23.72;90.27;99137.28;5047777;28;20203;-61
2023/09/23 05:58:15;;;;;;;8.93;3.20;;;;;;;23.95;86.95;99132.53;5047486;28;20695;-60
2023/09/23 06:00:42;;;;;;;10.43;3.30;;;;;;;24.16;86.88;99128.97;5047989;28;20203;-61
2023/09/23 06:03:08;;;;;;;9.60;2.88;;;;;;;24.46;80.53;99139.09;5047703;28;20199;-61
2023/09/23 06:05:35;;;;;;;6.95;2.72;;;;;;;24.72;83.20;99137.53;5047536;28;20204;-60
2023/09/23 06:08:02;;;;;;;9.73;2.70;;;;;;;24.94;82.64;99141.53;5047153;28;20235;-60
2023/09/23 06:10:31;;;;;;;11.02;3.22;;;;;;;25.14;84.15;99143.38;5046267;28;20199;-60
2023/09/23 06:12:58;;;;;;;14.55;3.08;;;;;;;25.32;80.87;99147.97;5047597;28;20229;-60
2023/09/23 06:15:28;;;;;;;7.40;3.00;;;;;;;25.58;80.84;99154.94;5047597;28;20200;-61
2023/09/23 06:17:55;;;;;;;7.45;2.97;;;;;;;25.88;84.36;99158.66;5047765;28;20848;-62
2023/09/23 06:20:22;;;;;;;10.68;3.25;;;;;;;26.07;80.99;99162.22;5047502;28;20210;-64
2023/09/23 06:22:48;;;;;;;7.70;2.80;;;;;;;26.28;72.73;99166.34;5047543;28;20545;-64
2023/09/23 06:25:16;;;;;;;6.47;2.75;;;;;;;26.41;73.96;99174.13;5049982;28;20649;-64
2023/09/23 06:27:43;;;;;;;9.77;3.13;;;;;;;26.64;78.67;99167.53;5051080;28;20558;-68
2023/09/23 06:30:12;;;;;;;9.13;3.03;;;;;;;26.82;74.12;99174.66;5051073;28;20234;-68
2023/09/23 06:32:41;;;;;;;7.93;2.83;;;;;;;27.08;70.42;99176.25;5051097;28;20640;-66
2023/09/23 06:35:09;;;;;;;10.05;3.17;;;;;;;27.30;71.93;99166.97;5050664;28;20191;-74
2023/09/23 06:37:36;;;;;;;7.22;2.78;;;;;;;27.41;66.12;99180.41;5050830;28;20208;-74
2023/09/23 06:40:03;;;;;;;10.52;3.00;;;;;;;27.53;68.49;99192.59;5049832;28;20211;-72
2023/09/23 06:42:30;;;;;;;5.40;2.83;;;;;;;27.86;75.49;99194.06;5050136;28;20202;-66
2023/09/23 06:44:58;;;;;;;8.02;3.00;;;;;;;28.14;71.38;99205.88;5070399;28;20210;-63
2023/09/23 06:47:25;;;;;;;10.63;3.08;;;;;;;28.24;68.34;99213.22;5073425;28;20721;-66
2023/09/23 06:49:54;;;;;;;6.18;2.95;;;;;;;28.38;67.50;99210.19;5074268;28;20210;-68
2023/09/23 06:52:20;;;;;;;10.32;2.97;;;;;;;28.67;69.02;99213.84;5079208;28;20225;-67
2023/09/23 06:54:47;;;;;;;8.63;3.00;;;;;;;28.83;72.09;99219.50;5079760;28;20229;-67
2023/09/23 06:57:14;;;;;;;6.43;3.08;;;;;;;28.94;65.86;99218.69;5079352;28;20680;-66
2023/09/23 06:59:41;;;;;;;6.28;2.90;;;;;;;29.01;61.04;99222.03;5079467;28;20195;-68
2023/09/23 07:02:08;;;;;;;8.90;3.22;;;;;;;28.99;58.59;99225.91;5077043;28;20225;-65
2023/09/23 07:04:36;;;;;;;6.80;3.15;;;;;;;29.04;59.79;99223.44;5076448;28;20225;-69
2023/09/23 07:07:04;;;;;;;8.70;2.80;;;;;;;29.14;57.90;99233.38;5080503;28;20201;-66
2023/09/23 07:09:31;;;;;;;5.85;3.00;;;;;;;29.20;58.66;99222.72;5076023;28;20748;-67
2023/09/23 07:11:58;;;;;;;10.63;3.17;;;;;;;29.31;56.93;99224.56;5079793;28;20202;-68
2023/09/23 07:14:25;;;;;;;9.07;3.15;;;;;;;29.37;58.23;99222.06;5078360;28;20199;-67
2023/09/23 07:16:52;;;;;;;8.57;3.08;;;;;;;29.47;58.07;99223.09;5076085;28;20199;-69
2023/09/23 07:19:19;;;;;;;7.47;3.00;;;;;;;29.55;56.55;99225.38;5078502;28;20700;-68
2023/09/23 07:21:46;;;;;;;8.25;3.08;;;;;;;29.74;58.03;99230.50;5078688;28;20592;-67
2023/09/23 07:24:14;;;;;;;9.93;2.95;;;;;;;30.05;56.84;99228.47;5068794;28;20229;-67
2023/09/23 07:26:41;;;;;;;7.13;3.20;;;;;;;30.19;56.40;99229.78;5069986;28;20599;-67
2023/09/23 07:29:08;;;;;;;8.20;2.80;;;;;;;30.45;57.28;99234.53;5069672;28;20249;-65
2023/09/23 07:31:35;;;;;;;11.48;3.28;;;;;;;30.67;54.71;99236.50;5068478;28;20203;-69
2023/09/23 07:34:01;;;;;;;7.65;2.85;;;;;;;30.96;59.96;99239.09;5067419;28;20210;-74
2023/09/23 07:36:28;;;;;;;4.75;3.28;;;;;;;31.22;63.16;99242.94;5075680;28;20191;-66
2023/09/23 07:38:55;;;;;;;11.32;3.92;;;;;;;31.32;59.24;99243.84;5074320;28;20202;-68
2023/09/23 07:41:23;;;;;;;27.42;13.45;;;;;;;31.37;52.69;99247.66;5076407;28;20209;-67
2023/09/23 07:43:50;;;;;;;19.70;9.40;;;;;;;31.48;54.92;99244.13;5073084;28;20214;-68
2023/09/23 07:46:17;;;;;;;9.95;4.18;;;;;;;31.69;60.55;99238.03;5076812;28;20210;-65
2023/09/23 07:48:44;;;;;;;10.07;4.15;;;;;;;31.84;59.62;99232.13;5071533;28;20223;-62
2023/09/23 07:51:12;;;;;;;13.18;4.85;;;;;;;31.98;60.78;99235.25;5056606;28;20208;-62
2023/09/23 07:53:39;;;;;;;9.93;4.40;;;;;;;32.14;55.28;99236.19;5049545;28;20394;-62
2023/09/23 07:56:05;;;;;;;12.38;4.28;;;;;;;32.12;53.08;99241.75;5048566;28;20638;-62
2023/09/23 07:58:33;;;;;;;8.05;4.35;;;;;;;32.15;56.51;99235.16;5049416;28;20598;-62
2023/09/23 08:01:00;;;;;;;6.03;3.58;;;;;;;32.25;57.68;99225.47;5049683;28;20206;-61
2023/09/23 08:03:28;;;;;;;9.52;4.05;;;;;;;32.37;55.46;99235.91;5059543;28;20206;-62
2023/09/23 08:05:55;;;;;;;13.77;3.92;;;;;;;32.27;57.22;99237.66;5064603;28;20207;-62
2023/09/23 08:08:21;;;;;;;11.13;4.32;;;;;;;32.30;52.86;99237.16;5049076;28;20715;-62
2023/09/23 08:10:49;;;;;;;9.98;4.07;;;;;;;32.50;54.92;99229.44;5049147;28;20215;-63
2023/09/23 08:13:16;;;;;;;6.95;3.53;;;;;;;32.55;50.77;99234.78;5049458;28;20200;-62
2023/09/23 08:15:45;;;;;;;8.90;3.50;;;;;;;32.66;48.80;99235.66;5048959;28;20200;-62
2023/09/23 08:18:12;;;;;;;6.50;3.55;;;;;;;32.94;54.40;99231.91;5049100;28;20227;-63
2023/09/23 08:20:39;;;;;;;8.20;4.15;;;;;;;33.20;54.40;99224.97;5048713;28;20199;-66
2023/09/23 08:23:07;;;;;;;7.65;3.42;;;;;;;33.40;50.15;99226.94;5056276;28;20713;-66
2023/09/23 08:25:33;;;;;;;6.00;3.53;;;;;;;33.22;46.47;99227.34;5079926;28;20197;-65
2023/09/23 08:28:01;;;;;;;11.90;4.25;;;;;;;33.10;46.66;99236.31;5077779;28;20703;-66
2023/09/23 08:30:27;;;;;;;20.30;8.98;;;;;;;33.24;52.23;99235.84;5072903;28;20207;-66
2023/09/23 08:32:56;;;;;;;8.98;4.57;;;;;;;33.48;48.08;99242.38;5077123;28;20228;-63
2023/09/23 08:35:22;;;;;;;13.40;3.85;;;;;;;33.35;50.58;99245.47;5069442;28;20206;-63
2023/09/23 08:37:48;;;;;;;17.92;7.68;;;;;;;33.33;50.90;99245.69;5066210;28;20199;-60
2023/09/23 08:40:19;;;;;;;17.00;6.68;;;;;;;33.19;53.73;99238.47;5068721;28;20210;-60
2023/09/23 08:42:51;;;;;;;11.70;5.20;;;;;;;33.07;51.40;99252.69;5068949;28;20203;-60
2023/09/23 08:45:22;;;;;;;14.25;5.78;;;;;;;33.31;54.52;99247.03;5073886;28;20198;-61
2023/09/23 08:47:49;;;;;;;14.50;6.65;;;;;;;33.50;51.13;99245.53;5077627;28;20207;-62
2023/09/23 08:50:21;;;;;;;20.50;5.55;;;;;;;33.73;51.19;99243.56;5076814;28;20235;-62
2023/09/23 08:52:48;;;;;;;7.30;4.05;;;;;;;33.95;50.50;99251.34;5074271;28;20210;-62
2023/09/23 08:55:18;;;;;;;13.77;6.78;;;;;;;34.20;51.18;99253.28;5075545;28;20210;-62
2023/09/23 08:57:44;;;;;;;19.40;8.25;;;;;;;34.25;48.71;99255.94;5073795;28;20637;-61
2023/09/23 09:00:13;;;;;;;13.77;5.50;;;;;;;34.38;53.83;99244.81;5074127;28;20226;-63
2023/09/23 09:02:40;;;;;;;8.98;4.07;;;;;;;34.51;49.91;99253.34;5077732;28;20285;-62
2023/09/23 09:05:08;;;;;;;5.85;3.33;;;;;;;34.47;51.52;99255.69;5077880;28;20217;-60
2023/09/23 09:07:37;;;;;;;5.53;3.42;;;;;;;34.59;49.24;99250.16;5076532;28;20195;-66
2023/09/23 09:10:06;;;;;;;5.78;3.13;;;;;;;34.52;49.75;99249.63;5077958;28;20614;-66
2023/09/23 09:12:33;;;;;;;5.88;3.40;;;;;;;34.68;45.90;99254.72;5076224;28;20691;-62
2023/09/23 09:15:00;;;;;;;6.60;3.17;;;;;;;34.67;47.13;99247.00;5074134;28;20195;-63
2023/09/23 09:17:27;;;;;;;5.43;3.33;;;;;;;34.68;46.58;99245.94;5077760;28;20218;-64
2023/09/23 09:19:54;;;;;;;5.18;3.25;;;;;;;34.90;48.99;99251.75;5078271;28;20207;-65
2023/09/23 09:22:20;;;;;;;3.90;3.03;;;;;;;35.03;48.43;99239.81;5076430;28;20206;-62
2023/09/23 09:24:49;;;;;;;6.78;3.30;;;;;;;35.19;46.67;99243.25;5077682;28;20190;-60
2023/09/23 09:27:16;;;;;;;5.38;3.60;;;;;;;35.37;47.20;99240.03;5074586;28;20198;-61
2023/09/23 09:29:44;;;;;;;9.23;3.90;;;;;;;35.40;43.10;99241.34;5077421;28;20218;-61
2023/09/23 09:32:12;;;;;;;6.55;3.53;;;;;;;35.57;45.41;99241.06;5078349;28;20186;-59
2023/09/23 09:34:45;;;;;;;9.10;4.28;;;;;;;35.75;47.15;99236.97;5077594;28;20676;-59
2023/09/23 09:37:13;;;;;;;22.42;10.93;;;;;;;35.77;43.94;99233.00;5074008;28;20187;-60
2023/09/23 09:39:51;;;;;;;4.82;3.05;;;;;;;35.64;41.29;99233.59;5074538;28;20229;-60
2023/09/23 09:42:28;;;;;;;6.95;3.53;;;;;;;35.69;43.40;99230.09;5078081;28;20189;-60
2023/09/23 09:44:57;;;;;;;7.10;3.25;;;;;;;35.87;46.53;99226.03;5074393;28;20241;-63
2023/09/23 09:47:24;;;;;;;7.40;3.40;;;;;;;36.02;43.95;99223.28;5086429;28;20529;-68
2023/09/23 09:49:52;;;;;;;132.18;57.75;;;;;;;36.07;45.08;99220.63;5087253;28;20226;-68
2023/09/23 09:52:22;;;;;;;11.88;5.80;;;;;;;36.00;40.09;99220.09;5087742;28;20202;-65
2023/09/23 09:54:52;;;;;;;11.93;4.70;;;;;;;36.06;42.19;99211.03;5088392;28;20259;-66
2023/09/23 09:57:22;;;;;;;4.38;2.65;;;;;;;36.12;41.16;99211.81;5087816;28;20214;-64
2023/09/23 09:59:50;;;;;;;4.20;2.70;;;;;;;35.97;39.18;99210.00;5088582;28;20297;-66
2023/09/23 10:02:17;;;;;;;6.53;3.10;;;;;;;36.03;41.26;99216.88;5068618;28;20734;-69
2023/09/23 10:04:47;;;;;;;7.78;2.80;;;;;;;35.67;44.72;99213.63;5081883;28;20667;-66
2023/09/23 10:07:14;;;;;;;7.07;3.50;;;;;;;35.14;42.14;99219.34;5081684;28;20243;-64
2023/09/23 10:09:53;;;;;;;11.43;5.50;;;;;;;35.40;44.03;99209.44;5080924;28;20225;-64
2023/09/23 10:12:26;;;;;;;4.57;3.13;;;;;;;35.66;45.07;99204.03;5081354;28;20198;-65
2023/09/23 10:14:54;;;;;;;8.68;5.10;;;;;;;35.91;43.18;99195.16;5082307;28;20252;-67
2023/09/23 10:17:30;;;;;;;6.72;3.85;;;;;;;35.90;42.88;99199.69;5080351;28;20203;-67
2023/09/23 10:19:57;;;;;;;4.80;3.00;;;;;;;36.01;42.70;99195.06;5088299;28;20766;-68
2023/09/23 10:22:24;;;;;;;10.15;4.90;;;;;;;36.02;43.54;99194.81;5086269;28;20302;-65
2023/09/23 10:25:00;;;;;;;19.80;8.88;;;;;;;36.05;40.67;99204.16;5088273;28;20195;-70
2023/09/23 10:27:28;;;;;;;10.77;3.90;;;;;;;36.13;42.18;99192.09;5076989;28;20198;-67
2023/09/23 10:29:55;;;;;;;6.80;3.97;;;;;;;36.12;43.36;99193.97;5080579;28;20230;-68
2023/09/23 10:32:22;;;;;;;9.88;4.57;;;;;;;36.24;41.89;99183.75;5081331;28;20203;-65
2023/09/23 10:34:52;;;;;;;6.53;3.17;;;;;;;36.16;41.47;99181.72;5077008;28;20588;-61
2023/09/23 10:37:29;;;;;;;4.63;2.55;;;;;;;36.23;40.37;99173.41;5069558;28;20198;-62
2023/09/23 10:39:56;;;;;;;6.25;3.13;;;;;;;36.23;40.33;99170.75;5079521;28;20278;-61
2023/09/23 10:42:23;;;;;;;5.13;3.00;;;;;;;36.17;37.56;99172.66;5078980;28;20536;-61
2023/09/23 10:44:52;;;;;;;4.75;2.85;;;;;;;36.10;40.93;99161.53;5079468;28;20198;-61
2023/09/23 10:47:18;;;;;;;3.35;2.58;;;;;;;35.95;40.00;99158.91;5078023;28;20215;-62
2023/09/23 10:49:45;;;;;;;4.38;2.50;;;;;;;36.02;39.22;99154.88;5077930;28;20236;-62
2023/09/23 10:52:12;;;;;;;9.30;2.72;;;;;;;35.68;38.71;99154.81;5079344;28;20203;-61
2023/09/23 10:54:40;;;;;;;6.15;2.80;;;;;;;35.58;38.16;99144.25;5079994;28;20194;-61
2023/09/23 10:57:07;;;;;;;7.38;3.25;;;;;;;35.67;38.36;99139.94;5080963;28;20202;-61
2023/09/23 10:59:34;;;;;;;6.68;2.75;;;;;;;35.79;38.71;99129.75;5079356;28;20198;-61
2023/09/23 11:02:05;;;;;;;9.00;5.28;;;;;;;35.89;38.00;99126.22;5079662;28;20204;-60
2023/09/23 11:04:32;;;;;;;6.90;2.72;;;;;;;35.90;36.21;99124.34;5076452;28;20569;-59
2023/09/23 11:06:58;;;;;;;3.75;2.45;;;;;;;35.96;36.84;99123.28;5080171;28;20575;-61
2023/09/23 11:09:26;;;;;;;13.65;6.20;;;;;;;35.90;35.89;99117.19;5078256;28;20219;-61
2023/09/23 11:11:54;;;;;;;6.03;3.55;;;;;;;35.91;37.16;99120.63;5072403;28;20480;-59
2023/09/23 11:14:21;;;;;;;16.42;6.50;;;;;;;35.82;35.93;99129.22;5078289;28;20204;-61
2023/09/23 11:16:49;;;;;;;4.90;2.67;;;;;;;35.87;37.29;99119.59;5086609;28;20238;-61
2023/09/23 11:19:18;;;;;;;6.30;2.60;;;;;;;35.90;35.06;99119.03;5085004;28;20248;-62
2023/09/23 11:21:46;;;;;;;6.20;3.08;;;;;;;36.16;36.31;99120.50;5069573;28;20272;-62
2023/09/23 11:24:13;;;;;;;6.45;3.10;;;;;;;36.13;35.23;99112.25;5068320;28;20221;-62
2023/09/23 11:26:40;;;;;;;7.07;2.70;;;;;;;36.03;37.14;99107.78;5049968;28;20235;-62
2023/09/23 11:29:07;;;;;;;5.85;3.38;;;;;;;36.16;36.66;99109.84;5049772;28;20207;-62
2023/09/23 11:31:34;;;;;;;8.65;4.72;;;;;;;36.16;34.86;99106.34;5057093;28;20211;-61